createdAt,value
2019-06-01T00:00:49.009Z,96.25
2019-06-01T00:01:49.030Z,97.24
2019-06-01T00:02:55.445Z,96.73
2019-06-01T00:03:48.985Z,96.73
2019-06-01T00:05:48.969Z,96.73
2019-06-01T00:06:49.061Z,96.79
2019-06-01T00:07:49.011Z,96.80
2019-06-01T00:08:49.315Z,96.87
2019-06-01T00:10:49.480Z,97.06
2019-06-01T00:11:49.689Z,97.00
2019-06-01T00:12:49.558Z,96.90
2019-06-01T00:13:49.669Z,97.01
2019-06-01T00:15:50.257Z,96.98
2019-06-01T00:16:50.347Z,97.07
2019-06-01T00:17:50.023Z,96.82
2019-06-01T00:18:50.268Z,97.33
2019-06-01T00:20:48.975Z,97.03
2019-06-01T00:21:49.464Z,97.09
2019-06-01T00:22:49.501Z,96.97
2019-06-01T00:23:48.977Z,97.21
2019-06-01T00:25:49.030Z,97.16
2019-06-01T00:26:49.892Z,97.29
2019-06-01T00:27:49.017Z,97.24
2019-06-01T00:28:49.974Z,97.31
2019-06-01T00:30:49.877Z,97.29
2019-06-01T00:31:49.899Z,97.36
2019-06-01T00:32:49.390Z,97.18
2019-06-01T00:33:49.594Z,97.52
2019-06-01T00:35:49.540Z,97.33
2019-06-01T00:36:49.660Z,97.14
2019-06-01T00:37:50.154Z,97.30
2019-06-01T00:38:49.929Z,97.12
2019-06-01T00:40:49.933Z,97.41
2019-06-01T00:41:50.142Z,97.40
2019-06-01T00:42:50.197Z,97.20
2019-06-01T00:43:50.383Z,97.41
2019-06-01T00:45:49.008Z,97.38
2019-06-01T00:46:49.018Z,97.53
2019-06-01T00:47:49.059Z,97.54
2019-06-01T00:48:49.986Z,97.46
2019-06-01T00:51:49.138Z,97.69
2019-06-01T00:52:49.293Z,97.30
2019-06-01T00:53:49.618Z,97.14
2019-06-01T00:54:49.551Z,97.23
2019-06-01T00:56:49.684Z,97.39
2019-06-01T00:57:49.773Z,97.36
2019-06-01T00:58:49.829Z,97.11
2019-06-01T00:59:50.017Z,97.27
2019-06-01T01:02:50.240Z,97.24
2019-06-01T01:03:50.101Z,97.22
2019-06-01T01:04:50.334Z,97.24
2019-06-01T01:05:49.032Z,97.32
2019-06-01T01:07:49.046Z,97.21
2019-06-01T01:08:49.100Z,97.24
2019-06-01T01:09:49.056Z,96.99
2019-06-01T01:10:49.141Z,97.06
2019-06-01T01:12:49.088Z,96.84
2019-06-01T01:13:49.246Z,96.90
2019-06-01T01:14:49.231Z,96.75
2019-06-01T01:15:49.344Z,96.33
2019-06-01T01:18:49.759Z,96.61
2019-06-01T01:19:49.674Z,96.69
2019-06-01T01:20:50.024Z,96.57
2019-06-01T01:21:49.924Z,96.61
2019-06-01T01:23:50.247Z,96.12
2019-06-01T01:24:50.412Z,96.28
2019-06-01T01:25:50.413Z,96.48
2019-06-01T01:26:49.074Z,96.20
2019-06-01T01:28:49.097Z,95.83
2019-06-01T01:29:49.085Z,95.64
2019-06-01T01:31:04.661Z,95.63
2019-06-01T01:31:49.213Z,95.49
2019-06-01T01:34:49.467Z,95.72
2019-06-01T01:35:49.693Z,95.37
2019-06-01T01:36:49.691Z,95.24
2019-06-01T01:37:50.013Z,95.15
2019-06-01T01:39:50.131Z,95.22
2019-06-01T01:40:50.074Z,95.13
2019-06-01T01:41:50.018Z,95.57
2019-06-01T01:42:50.474Z,95.07
2019-06-01T01:44:49.070Z,94.98
2019-06-01T01:45:49.065Z,95.25
2019-06-01T01:46:49.087Z,95.33
2019-06-01T01:47:49.455Z,95.01
2019-06-01T01:50:50.151Z,95.02
2019-06-01T01:51:50.322Z,95.61
2019-06-01T01:52:49.090Z,94.74
2019-06-01T01:53:50.458Z,95.09
2019-06-01T01:55:49.091Z,95.45
2019-06-01T01:56:49.939Z,95.21
2019-06-01T01:57:49.103Z,95.71
2019-06-01T01:58:50.250Z,95.53
2019-06-01T02:01:50.304Z,95.27
2019-06-01T02:02:49.105Z,95.31
2019-06-01T02:03:49.107Z,94.98
2019-06-01T02:04:49.103Z,95.24
2019-06-01T02:06:49.160Z,95.10
2019-06-01T02:07:49.146Z,95.01
2019-06-01T02:08:49.145Z,95.70
2019-06-01T02:09:49.113Z,95.53
2019-06-01T02:11:49.169Z,94.92
2019-06-01T02:12:49.096Z,95.69
2019-06-01T02:13:49.136Z,95.21
2019-06-01T02:14:49.110Z,95.59
2019-06-01T02:16:49.105Z,95.24
2019-06-01T02:17:49.098Z,95.40
2019-06-01T02:18:49.133Z,95.97
2019-06-01T02:19:49.099Z,95.35
2019-06-01T02:22:49.104Z,95.61
2019-06-01T02:23:49.123Z,95.73
2019-06-01T02:24:49.165Z,95.95
2019-06-01T02:25:49.137Z,96.09
2019-06-01T02:27:49.145Z,95.88
2019-06-01T02:28:49.136Z,95.74
2019-06-01T02:29:49.134Z,96.11
2019-06-01T02:30:49.169Z,96.25
2019-06-01T02:32:49.129Z,95.91
2019-06-01T02:33:49.139Z,96.60
2019-06-01T02:34:49.177Z,96.55
2019-06-01T02:35:49.154Z,96.77
2019-06-01T02:37:49.182Z,96.56
2019-06-01T02:38:49.143Z,95.89
2019-06-01T02:39:49.207Z,96.63
2019-06-01T02:40:49.157Z,96.30
2019-06-01T02:42:49.147Z,96.12
2019-06-01T02:43:49.131Z,96.66
2019-06-01T02:44:49.215Z,96.88
2019-06-01T02:45:49.142Z,96.37
2019-06-01T02:47:49.163Z,96.32
2019-06-01T02:48:49.168Z,96.23
2019-06-01T02:49:49.167Z,96.51
2019-06-01T02:50:49.166Z,96.29
2019-06-01T02:52:49.224Z,96.56
2019-06-01T02:53:49.187Z,96.42
2019-06-01T02:54:49.154Z,96.58
2019-06-01T02:55:49.183Z,96.92
2019-06-01T02:57:49.178Z,96.82
2019-06-01T02:58:49.175Z,96.23
2019-06-01T02:59:49.226Z,96.78
2019-06-01T03:00:49.186Z,96.75
2019-06-01T03:03:49.179Z,96.18
2019-06-01T03:04:49.178Z,96.13
2019-06-01T03:05:49.167Z,96.82
2019-06-01T03:06:49.208Z,96.40
2019-06-01T03:08:49.171Z,96.84
2019-06-01T03:09:49.174Z,96.67
2019-06-01T03:10:49.174Z,96.12
2019-06-01T03:11:49.199Z,96.33
2019-06-01T03:13:49.207Z,96.87
2019-06-01T03:14:49.219Z,96.68
2019-06-01T03:15:49.203Z,96.92
2019-06-01T03:16:49.204Z,96.37
2019-06-01T03:18:49.201Z,96.28
2019-06-01T03:19:49.218Z,97.07
2019-06-01T03:20:49.217Z,96.60
2019-06-01T03:21:49.219Z,97.01
2019-06-01T03:23:49.228Z,96.65
2019-06-01T03:24:49.245Z,96.54
2019-06-01T03:25:49.212Z,96.72
2019-06-01T03:26:49.217Z,96.74
2019-06-01T03:28:49.207Z,96.45
2019-06-01T03:29:49.233Z,96.17
2019-06-01T03:30:49.226Z,96.65
2019-06-01T03:31:49.214Z,96.33
2019-06-01T03:34:49.217Z,96.32
2019-06-01T03:35:49.245Z,97.03
2019-06-01T03:36:49.214Z,96.56
2019-06-01T03:37:49.225Z,96.75
2019-06-01T03:39:49.219Z,96.46
2019-06-01T03:40:49.220Z,96.90
2019-06-01T03:41:49.327Z,96.77
2019-06-01T03:42:49.209Z,97.15
2019-06-01T03:44:49.225Z,97.00
2019-06-01T03:45:49.237Z,96.64
2019-06-01T03:46:49.221Z,97.33
2019-06-01T03:47:49.241Z,96.64
2019-06-01T03:49:49.268Z,97.31
2019-06-01T03:50:49.216Z,97.22
2019-06-01T03:51:49.220Z,97.27
2019-06-01T03:52:49.262Z,97.49
2019-06-01T03:54:49.248Z,97.05
2019-06-01T03:55:49.289Z,96.50
2019-06-01T03:56:49.247Z,97.22
2019-06-01T03:57:49.236Z,97.23
2019-06-01T03:59:49.282Z,97.31
2019-06-01T04:00:49.266Z,96.91
2019-06-01T04:01:49.248Z,97.36
2019-06-01T04:02:49.251Z,97.10
2019-06-01T04:04:49.287Z,97.44
2019-06-01T04:05:49.262Z,97.25
2019-06-01T04:06:49.275Z,96.81
2019-06-01T04:07:49.264Z,97.38
2019-06-01T04:09:49.267Z,97.01
2019-06-01T04:10:49.262Z,97.32
2019-06-01T04:11:49.250Z,97.09
2019-06-01T04:12:49.268Z,97.07
2019-06-01T04:14:49.279Z,96.98
2019-06-01T04:15:49.269Z,97.10
2019-06-01T04:16:49.306Z,97.10
2019-06-01T04:17:49.273Z,97.59
2019-06-01T04:19:49.306Z,97.46
2019-06-01T04:20:49.269Z,97.37
2019-06-01T04:21:49.286Z,97.51
2019-06-01T04:22:49.299Z,97.63
2019-06-01T04:24:49.280Z,97.26
2019-06-01T04:25:49.285Z,97.89
2019-06-01T04:26:49.281Z,97.12
2019-06-01T04:27:49.277Z,97.75
2019-06-01T04:29:49.290Z,97.90
2019-06-01T04:30:49.303Z,97.34
2019-06-01T04:31:49.311Z,97.69
2019-06-01T04:32:50.442Z,97.87
2019-06-01T04:34:49.302Z,97.77
2019-06-01T04:35:49.290Z,97.77
2019-06-01T04:36:49.306Z,97.64
2019-06-01T04:37:49.310Z,97.58
2019-06-01T04:40:49.361Z,98.21
2019-06-01T04:41:49.377Z,97.57
2019-06-01T04:42:49.325Z,97.76
2019-06-01T04:43:49.339Z,97.94
2019-06-01T04:45:49.310Z,97.55
2019-06-01T04:46:49.354Z,98.10
2019-06-01T04:47:49.312Z,97.86
2019-06-01T04:48:49.329Z,97.66
2019-06-01T04:50:49.333Z,97.69
2019-06-01T04:51:49.299Z,97.78
2019-06-01T04:52:49.311Z,97.93
2019-06-01T04:53:49.336Z,98.08
2019-06-01T04:55:49.313Z,97.82
2019-06-01T04:56:49.307Z,98.06
2019-06-01T04:57:49.327Z,98.31
2019-06-01T04:58:49.309Z,98.03
2019-06-01T05:01:49.382Z,97.60
2019-06-01T05:03:02.221Z,98.02
2019-06-01T05:03:49.326Z,97.73
2019-06-01T05:04:49.339Z,98.06
2019-06-01T05:06:49.320Z,98.48
2019-06-01T05:07:49.337Z,98.23
2019-06-01T05:08:49.354Z,98.27
2019-06-01T05:09:49.356Z,98.27
2019-06-01T05:11:49.361Z,98.05
2019-06-01T05:12:49.343Z,98.12
2019-06-01T05:13:49.376Z,97.58
2019-06-01T05:14:49.324Z,97.68
2019-06-01T05:16:49.359Z,98.18
2019-06-01T05:17:49.381Z,98.32
2019-06-01T05:18:49.429Z,97.94
2019-06-01T05:19:49.335Z,98.33
2019-06-01T05:22:49.330Z,98.02
2019-06-01T05:23:49.350Z,98.52
2019-06-01T05:24:49.352Z,98.40
2019-06-01T05:25:49.339Z,98.26
2019-06-01T05:27:49.351Z,98.16
2019-06-01T05:28:49.370Z,98.41
2019-06-01T05:29:49.419Z,97.94
2019-06-01T05:30:49.342Z,98.24
2019-06-01T05:33:49.379Z,97.70
2019-06-01T05:34:49.383Z,98.06
2019-06-01T05:35:49.385Z,98.30
2019-06-01T05:36:49.397Z,98.52
2019-06-01T05:39:49.367Z,98.53
2019-06-01T05:40:49.371Z,98.22
2019-06-01T05:41:49.384Z,98.38
2019-06-01T05:42:49.373Z,97.94
2019-06-01T05:45:49.377Z,98.34
2019-06-01T05:46:49.399Z,98.92
2019-06-01T05:47:49.361Z,98.61
2019-06-01T05:48:49.378Z,98.33
2019-06-01T05:50:49.421Z,98.19
2019-06-01T05:51:49.381Z,98.32
2019-06-01T05:52:49.387Z,98.11
2019-06-01T05:53:49.407Z,97.91
2019-06-01T05:55:49.421Z,98.19
2019-06-01T05:56:49.411Z,97.92
2019-06-01T05:57:49.379Z,98.00
2019-06-01T05:58:49.383Z,98.13
2019-06-01T06:00:49.407Z,97.53
2019-06-01T06:01:49.392Z,97.37
2019-06-01T06:02:49.446Z,98.41
2019-06-01T06:03:49.423Z,98.26
2019-06-01T06:05:49.402Z,97.66
2019-06-01T06:06:49.391Z,97.29
2019-06-01T06:07:49.422Z,97.44
2019-06-01T06:08:49.436Z,96.87
2019-06-01T06:10:49.410Z,96.84
2019-06-01T06:11:53.178Z,95.59
2019-06-01T06:12:49.440Z,95.64
2019-06-01T06:13:49.434Z,94.83
2019-06-01T06:16:49.435Z,92.00
2019-06-01T06:17:49.406Z,91.52
2019-06-01T06:18:49.424Z,89.61
2019-06-01T06:19:49.424Z,89.76
2019-06-01T06:21:49.447Z,89.91
2019-06-01T06:22:49.480Z,89.35
2019-06-01T06:23:49.425Z,89.17
2019-06-01T06:24:49.429Z,89.95
2019-06-01T06:26:49.445Z,90.14
2019-06-01T06:27:49.452Z,90.29
2019-06-01T06:28:49.471Z,90.43
2019-06-01T06:29:49.451Z,90.70
2019-06-01T06:31:49.454Z,90.54
2019-06-01T06:32:49.442Z,90.72
2019-06-01T06:33:56.750Z,89.82
2019-06-01T06:34:49.487Z,90.22
2019-06-01T06:36:49.440Z,90.63
2019-06-01T06:37:49.466Z,89.41
2019-06-01T06:38:49.459Z,89.04
2019-06-01T06:39:49.478Z,87.75
2019-06-01T06:41:49.506Z,88.62
2019-06-01T06:42:49.482Z,88.62
2019-06-01T06:43:49.448Z,86.29
2019-06-01T06:44:49.432Z,86.14
2019-06-01T06:46:49.454Z,85.22
2019-06-01T06:47:49.475Z,85.56
2019-06-01T06:48:49.467Z,86.97
2019-06-01T06:49:49.465Z,87.14
2019-06-01T06:52:49.516Z,86.71
2019-06-01T06:53:49.499Z,84.42
2019-06-01T06:54:49.472Z,84.60
2019-06-01T06:55:49.503Z,85.93
2019-06-01T06:57:49.523Z,84.76
2019-06-01T06:58:49.484Z,85.42
2019-06-01T06:59:49.511Z,86.73
2019-06-01T07:00:49.478Z,86.92
2019-06-01T07:02:49.543Z,86.84
2019-06-01T07:03:49.486Z,87.01
2019-06-01T07:04:49.461Z,85.24
2019-06-01T07:05:49.516Z,84.77
2019-06-01T07:07:49.480Z,86.61
2019-06-01T07:08:49.479Z,86.10
2019-06-01T07:09:49.513Z,85.42
2019-06-01T07:10:49.491Z,86.44
2019-06-01T07:12:49.530Z,86.44
2019-06-01T07:13:49.504Z,85.60
2019-06-01T07:14:49.501Z,85.79
2019-06-01T07:15:49.492Z,85.71
2019-06-01T07:17:49.509Z,85.63
2019-06-01T07:18:49.515Z,86.32
2019-06-01T07:19:49.550Z,86.63
2019-06-01T07:20:49.546Z,82.76
2019-06-01T07:22:49.515Z,84.15
2019-06-01T07:23:49.537Z,85.13
2019-06-01T07:24:49.711Z,83.93
2019-06-01T07:25:49.613Z,82.22
2019-06-01T07:28:49.541Z,81.61
2019-06-01T07:29:49.539Z,81.95
2019-06-01T07:30:50.451Z,80.94
2019-06-01T07:31:49.561Z,80.96
2019-06-01T07:33:49.530Z,84.39
2019-06-01T07:34:49.510Z,83.58
2019-06-01T07:35:49.543Z,81.31
2019-06-01T07:36:49.537Z,81.19
2019-06-01T07:37:49.541Z,81.21
2019-06-01T07:39:49.552Z,82.93
2019-06-01T07:40:49.552Z,84.18
2019-06-01T07:41:49.575Z,83.05
2019-06-01T07:42:49.544Z,81.63
2019-06-01T07:44:49.591Z,81.78
2019-06-01T07:45:49.528Z,82.88
2019-06-01T07:46:49.545Z,84.58
2019-06-01T07:47:49.574Z,83.59
2019-06-01T07:49:49.537Z,82.29
2019-06-01T07:50:49.559Z,82.14
2019-06-01T07:51:49.620Z,77.62
2019-06-01T07:52:49.543Z,80.31
2019-06-01T07:54:49.590Z,78.16
2019-06-01T07:55:49.551Z,74.60
2019-06-01T07:56:49.581Z,77.66
2019-06-01T07:57:49.552Z,79.77
2019-06-01T08:00:49.592Z,77.67
2019-06-01T08:01:49.616Z,78.63
2019-06-01T08:02:49.591Z,78.11
2019-06-01T08:03:49.569Z,74.08
2019-06-01T08:05:49.596Z,73.44
2019-06-01T08:06:49.612Z,77.21
2019-06-01T08:07:49.585Z,74.92
2019-06-01T08:08:49.583Z,79.60
2019-06-01T08:11:49.584Z,76.04
2019-06-01T08:12:49.566Z,75.64
2019-06-01T08:13:49.591Z,76.20
2019-06-01T08:14:49.610Z,77.34
2019-06-01T08:16:49.589Z,73.41
2019-06-01T08:17:49.581Z,74.80
2019-06-01T08:18:52.979Z,72.92
2019-06-01T08:19:51.853Z,71.48
2019-06-01T08:22:49.591Z,73.71
2019-06-01T08:23:49.618Z,72.34
2019-06-01T08:24:49.607Z,71.97
2019-06-01T08:25:49.588Z,73.94
2019-06-01T08:27:49.611Z,69.81
2019-06-01T08:28:49.604Z,70.61
2019-06-01T08:29:49.621Z,71.58
2019-06-01T08:30:49.622Z,69.88
2019-06-01T08:32:49.633Z,67.51
2019-06-01T08:33:49.613Z,69.10
2019-06-01T08:34:49.608Z,65.41
2019-06-01T08:35:49.617Z,67.11
2019-06-01T08:37:49.637Z,66.26
2019-06-01T08:38:49.623Z,66.41
2019-06-01T08:39:49.653Z,66.23
2019-06-01T08:40:49.642Z,65.12
2019-06-01T08:42:49.625Z,61.31
2019-06-01T08:43:49.619Z,62.03
2019-06-01T08:44:49.616Z,62.35
2019-06-01T08:45:49.678Z,63.29
2019-06-01T08:47:49.704Z,61.31
2019-06-01T08:48:49.626Z,60.98
2019-06-01T08:49:49.653Z,60.28
2019-06-01T08:50:49.641Z,63.20
2019-06-01T08:52:49.630Z,66.12
2019-06-01T08:53:49.623Z,64.21
2019-06-01T09:32:34.312Z,54.63
2019-06-01T09:33:35.096Z,58.95
2019-06-01T09:36:33.171Z,53.91
2019-06-01T09:37:33.178Z,51.86
2019-06-01T09:38:33.780Z,53.58
2019-06-01T09:39:33.244Z,54.32
2019-06-01T09:41:33.185Z,51.52
2019-06-01T09:42:33.436Z,59.18
2019-06-01T09:43:33.236Z,53.06
2019-06-01T09:44:33.590Z,57.57
2019-06-01T09:47:33.311Z,56.17
2019-06-01T09:48:33.588Z,50.56
2019-06-01T09:49:34.082Z,51.57
2019-06-01T09:50:33.533Z,59.58
2019-06-01T09:52:33.418Z,51.83
2019-06-01T09:53:34.472Z,54.70
2019-06-01T09:54:34.563Z,52.56
2019-06-01T09:55:34.515Z,52.38
2019-06-01T09:57:34.177Z,49.93
2019-06-01T09:58:34.574Z,52.79
2019-06-01T09:59:34.037Z,50.96
2019-06-01T10:00:34.707Z,55.85
2019-06-01T10:03:34.457Z,50.34
2019-06-01T10:04:34.373Z,50.74
2019-06-01T10:05:34.689Z,48.53
2019-06-01T10:06:34.410Z,48.98
2019-06-01T10:08:34.336Z,49.61
2019-06-01T10:09:33.636Z,47.83
2019-06-01T10:10:33.935Z,47.27
2019-06-01T10:11:34.305Z,46.98
2019-06-01T10:14:34.165Z,58.09
2019-06-01T10:15:34.334Z,56.52
2019-06-01T10:16:34.420Z,51.39
2019-06-01T10:17:33.648Z,49.77
2019-06-01T10:19:33.226Z,53.03
2019-06-01T10:20:33.281Z,47.38
2019-06-01T10:21:33.932Z,48.06
2019-06-01T10:22:33.322Z,53.49
2019-06-01T10:24:33.299Z,52.86
2019-06-01T10:25:34.448Z,49.48
2019-06-01T10:26:34.396Z,50.66
2019-06-01T10:27:34.465Z,52.42
2019-06-01T10:29:34.374Z,52.20
2019-06-01T10:30:33.902Z,47.60
2019-06-01T10:31:34.564Z,45.32
2019-06-01T10:32:34.210Z,51.47
2019-06-01T10:33:33.321Z,41.79
2019-06-01T11:07:06.034Z,46.96
2019-06-01T11:08:05.982Z,48.13
2019-06-01T11:10:05.990Z,45.73
2019-06-01T11:11:05.999Z,49.10
2019-06-01T11:12:05.978Z,46.08
2019-06-01T11:13:05.993Z,41.69
2019-06-01T11:15:06.004Z,43.42
2019-06-01T11:16:05.994Z,42.87
2019-06-01T11:17:05.996Z,42.37
2019-06-01T11:18:06.020Z,45.89
2019-06-01T11:21:06.018Z,46.37
2019-06-01T11:22:06.049Z,41.59
2019-06-01T11:23:06.008Z,47.74
2019-06-01T11:24:06.005Z,46.93
2019-06-01T11:26:06.003Z,47.15
2019-06-01T11:27:06.036Z,45.80
2019-06-01T11:28:06.016Z,44.79
2019-06-01T11:29:06.021Z,44.88
2019-06-01T11:31:06.017Z,47.51
2019-06-01T11:32:06.010Z,48.84
2019-06-01T11:33:06.019Z,46.40
2019-06-01T11:34:06.031Z,53.88
2019-06-01T11:37:06.124Z,51.48
2019-06-01T11:38:06.061Z,52.03
2019-06-01T11:39:06.043Z,51.15
2019-06-01T11:40:06.052Z,48.24
2019-06-01T11:42:06.069Z,52.45
2019-06-01T11:43:06.052Z,47.11
2019-06-01T11:44:06.058Z,45.92
2019-06-01T11:45:06.016Z,48.86
2019-06-01T11:48:06.009Z,52.70
2019-06-01T11:49:06.078Z,50.45
2019-06-01T11:50:06.069Z,45.24
2019-06-01T11:51:06.101Z,48.99
2019-06-01T11:53:06.078Z,46.21
2019-06-01T11:54:06.067Z,47.78
2019-06-01T11:55:06.082Z,44.14
2019-06-01T11:56:06.034Z,46.66
2019-06-01T11:59:06.115Z,43.25
2019-06-01T12:00:06.105Z,43.76
2019-06-01T12:01:06.118Z,46.94
2019-06-01T12:02:06.078Z,43.72
2019-06-01T12:05:06.089Z,40.87
2019-06-01T12:06:06.066Z,45.35
2019-06-01T12:07:16.933Z,43.30
2019-06-01T12:08:06.057Z,41.11
2019-06-01T12:10:06.096Z,43.54
2019-06-01T12:11:06.088Z,43.41
2019-06-01T12:12:06.080Z,45.66
2019-06-01T12:13:06.106Z,47.90
2019-06-01T12:16:06.088Z,41.65
2019-06-01T12:17:06.109Z,47.59
2019-06-01T12:18:06.109Z,44.27
2019-06-01T12:19:06.154Z,40.13
2019-06-01T12:21:06.101Z,41.91
2019-06-01T12:22:06.127Z,43.61
2019-06-01T12:23:06.104Z,42.87
2019-06-01T12:24:06.201Z,41.81
2019-06-01T12:26:06.125Z,39.00
2019-06-01T12:27:06.118Z,40.88
2019-06-01T12:28:06.124Z,42.87
2019-06-01T12:29:06.104Z,41.67
2019-06-01T12:31:06.129Z,40.19
2019-06-01T12:32:06.148Z,45.01
2019-06-01T12:33:06.139Z,40.85
2019-06-01T12:34:06.160Z,48.67
2019-06-01T12:36:06.153Z,41.87
2019-06-01T12:37:06.153Z,45.94
2019-06-01T12:38:07.070Z,46.49
2019-06-01T12:39:06.118Z,45.23
2019-06-01T12:41:06.119Z,44.16
2019-06-01T12:42:06.138Z,45.38
2019-06-01T12:43:06.138Z,48.86
2019-06-01T12:44:06.178Z,54.83
2019-06-01T12:46:07.745Z,46.22
2019-06-01T12:47:06.156Z,42.35
2019-06-01T12:48:06.152Z,43.78
2019-06-01T12:49:06.151Z,45.16
2019-06-01T12:51:06.162Z,42.36
2019-06-01T12:52:06.149Z,40.84
2019-06-01T12:53:06.168Z,42.63
2019-06-01T12:54:06.148Z,43.11
2019-06-01T12:56:06.178Z,47.03
2019-06-01T12:57:06.222Z,49.99
2019-06-01T12:58:06.161Z,46.72
2019-06-01T12:59:06.217Z,40.53
2019-06-01T13:01:06.194Z,44.64
2019-06-01T13:02:06.172Z,42.15
2019-06-01T13:03:07.801Z,40.34
2019-06-01T13:04:06.180Z,48.40
2019-06-01T13:06:06.209Z,48.99
2019-06-01T13:07:06.176Z,45.12
2019-06-01T13:08:06.185Z,47.64
2019-06-01T13:09:06.178Z,44.72
2019-06-01T13:11:06.182Z,43.41
2019-06-01T13:12:06.204Z,43.00
2019-06-01T13:13:06.205Z,43.50
2019-06-01T13:30:06.263Z,49.84
2019-06-01T13:31:06.217Z,48.01
2019-06-01T13:32:06.237Z,52.66
2019-06-01T13:33:06.252Z,48.76
2019-06-01T13:35:06.228Z,50.83
2019-06-01T13:36:06.254Z,46.88
2019-06-01T13:37:06.250Z,45.98
2019-06-01T13:38:12.216Z,47.57
2019-06-01T13:40:06.270Z,51.45
2019-06-01T13:41:06.295Z,49.69
2019-06-01T13:42:06.266Z,47.04
2019-06-01T13:43:06.266Z,48.79
2019-06-01T13:46:06.546Z,42.48
2019-06-01T13:47:06.339Z,44.88
2019-06-01T13:48:06.246Z,47.52
2019-06-01T13:49:06.234Z,45.61
2019-06-01T13:51:06.271Z,51.32
2019-06-01T13:52:06.296Z,48.60
2019-06-01T13:53:06.270Z,46.81
2019-06-01T13:54:06.273Z,46.15
2019-06-01T13:56:06.319Z,45.56
2019-06-01T13:57:06.273Z,42.21
2019-06-01T13:58:06.304Z,44.67
2019-06-01T13:59:06.314Z,42.32
2019-06-01T14:01:06.294Z,44.28
2019-06-01T14:02:06.292Z,45.34
2019-06-01T14:03:06.330Z,47.47
2019-06-01T14:04:06.313Z,46.40
2019-06-01T14:06:06.323Z,47.20
2019-06-01T14:07:06.291Z,41.63
2019-06-01T14:08:06.305Z,44.27
2019-06-01T14:09:06.294Z,44.77
2019-06-01T14:11:06.328Z,47.62
2019-06-01T14:12:06.315Z,51.16
2019-06-01T14:13:06.339Z,47.76
2019-06-01T14:14:06.313Z,42.50
2019-06-01T14:16:06.331Z,47.12
2019-06-01T14:17:06.302Z,43.39
2019-06-01T14:18:06.310Z,44.25
2019-06-01T14:19:07.126Z,41.24
2019-06-01T14:21:06.317Z,43.06
2019-06-01T14:22:06.320Z,41.63
2019-06-01T14:23:06.316Z,43.67
2019-06-01T14:24:06.448Z,42.89
2019-06-01T14:27:06.400Z,45.04
2019-06-01T14:28:06.336Z,43.80
2019-06-01T14:29:06.303Z,44.13
2019-06-01T14:30:06.341Z,45.32
2019-06-01T14:32:06.384Z,43.93
2019-06-01T14:33:06.663Z,48.01
2019-06-01T14:34:06.383Z,47.84
2019-06-01T14:35:06.365Z,41.26
2019-06-01T14:37:06.351Z,46.66
2019-06-01T14:38:06.340Z,43.67
2019-06-01T14:39:06.352Z,46.73
2019-06-01T14:40:06.367Z,42.83
2019-06-01T14:43:06.356Z,44.16
2019-06-01T14:44:06.406Z,43.33
2019-06-01T14:45:06.369Z,44.63
2019-06-01T14:46:06.352Z,42.40
2019-06-01T16:31:35.512Z,62.53
2019-06-01T16:32:39.224Z,63.07
2019-06-01T16:33:35.446Z,65.62
2019-06-01T16:34:35.443Z,62.00
2019-06-01T16:35:35.482Z,67.50
2019-06-01T16:36:35.438Z,65.38
2019-06-01T16:37:35.494Z,64.25
2019-06-01T16:38:35.429Z,64.15
2019-06-01T16:39:35.452Z,67.01
2019-06-01T16:40:35.466Z,67.27
2019-06-01T16:41:35.485Z,67.29
2019-06-01T16:42:35.436Z,70.24
2019-06-01T16:43:35.475Z,63.66
2019-06-01T16:44:35.455Z,67.84
2019-06-01T16:45:35.485Z,67.37
2019-06-01T16:46:35.524Z,66.71
2019-06-01T16:47:35.449Z,56.57
2019-06-01T16:48:35.495Z,66.76
2019-06-01T16:49:35.485Z,66.68
2019-06-01T16:50:35.471Z,64.45
2019-06-01T16:51:35.491Z,61.51
2019-06-01T16:52:35.476Z,67.25
2019-06-01T16:53:35.471Z,66.02
2019-06-01T16:54:35.462Z,64.51
2019-06-01T16:55:35.517Z,64.20
2019-06-01T16:56:35.734Z,61.73
2019-06-01T16:57:35.511Z,60.58
2019-06-01T16:58:35.493Z,67.37
2019-06-01T16:59:35.457Z,63.83
2019-06-01T17:00:35.471Z,68.53
2019-06-01T17:01:35.477Z,65.16
2019-06-01T17:02:35.542Z,67.17
2019-06-01T17:03:35.484Z,66.65
2019-06-01T17:04:35.496Z,65.96
2019-06-01T17:05:35.473Z,63.03
2019-06-01T17:06:35.480Z,66.96
2019-06-01T17:07:35.506Z,66.08
2019-06-01T17:08:35.519Z,64.54
2019-06-01T17:09:35.492Z,68.50
2019-06-01T17:10:35.461Z,66.61
2019-06-01T17:11:35.498Z,66.88
2019-06-01T17:12:35.516Z,66.01
2019-06-01T17:13:35.498Z,69.10
2019-06-01T17:14:35.488Z,62.88
2019-06-01T17:15:35.504Z,67.32
2019-06-01T17:16:35.498Z,64.83
2019-06-01T17:17:35.470Z,68.49
2019-06-01T17:18:35.848Z,65.54
2019-06-01T17:19:35.506Z,67.30
2019-06-01T17:20:35.505Z,66.87
2019-06-01T17:21:35.491Z,67.25
2019-06-01T17:22:35.508Z,69.44
2019-06-01T17:23:35.504Z,66.08
2019-06-01T17:24:35.515Z,64.96
2019-06-01T17:25:35.538Z,70.01
2019-06-01T17:26:35.503Z,67.11
2019-06-01T17:27:35.509Z,70.03
2019-06-01T17:28:35.498Z,69.16
2019-06-01T17:29:35.534Z,69.42
2019-06-01T17:30:35.541Z,69.40
2019-06-01T17:31:35.492Z,69.09
2019-06-01T17:32:35.526Z,70.18
2019-06-01T17:33:35.497Z,68.13
2019-06-01T17:34:35.540Z,68.37
2019-06-01T17:35:36.306Z,66.28
2019-06-01T17:36:35.480Z,69.04
2019-06-01T17:37:35.510Z,70.95
2019-06-01T17:38:35.512Z,67.18
2019-06-01T17:39:35.566Z,69.32
2019-06-01T17:40:38.522Z,69.86
2019-06-01T17:41:35.565Z,71.25
2019-06-01T17:42:35.526Z,71.23
2019-06-01T17:43:35.522Z,70.20
2019-06-01T17:44:35.613Z,69.94
2019-06-01T17:45:35.518Z,70.55
2019-06-01T17:46:52.275Z,70.64
2019-06-01T17:47:35.555Z,70.50
2019-06-01T17:48:35.559Z,68.29
2019-06-01T17:49:35.571Z,73.23
2019-06-01T17:50:35.522Z,72.93
2019-06-01T17:51:35.537Z,67.60
2019-06-01T17:52:35.601Z,70.12
2019-06-01T17:53:35.617Z,72.31
2019-06-01T17:54:35.567Z,69.50
2019-06-01T17:55:35.567Z,70.41
2019-06-01T17:56:35.547Z,68.66
2019-06-01T17:57:35.544Z,69.58
2019-06-01T17:58:35.593Z,69.70
2019-06-01T17:59:35.524Z,68.81
2019-06-01T18:00:35.555Z,69.88
2019-06-01T18:01:35.567Z,73.24
2019-06-01T18:02:35.572Z,71.29
2019-06-01T18:03:35.557Z,71.96
2019-06-01T18:04:35.560Z,72.77
2019-06-01T18:05:35.564Z,70.96
2019-06-01T18:06:35.593Z,72.53
2019-06-01T18:07:35.572Z,70.93
2019-06-01T18:08:35.574Z,71.96
2019-06-01T18:09:35.598Z,69.40
2019-06-01T18:10:35.631Z,70.84
2019-06-01T18:11:35.565Z,69.88
2019-06-01T18:12:35.590Z,68.59
2019-06-01T18:13:35.594Z,69.06
2019-06-01T18:14:35.569Z,70.72
2019-06-01T18:15:35.601Z,71.64
2019-06-01T18:16:35.609Z,73.54
2019-06-01T18:17:35.577Z,72.70
2019-06-01T18:18:35.611Z,70.43
2019-06-01T18:19:35.573Z,69.69
2019-06-01T18:20:35.585Z,72.16
2019-06-01T18:21:35.663Z,72.52
2019-06-01T18:22:35.607Z,72.53
2019-06-01T18:23:35.594Z,73.12
2019-06-01T18:24:35.593Z,72.52
2019-06-01T18:25:35.615Z,71.16
2019-06-01T18:26:35.588Z,70.88
2019-06-01T18:27:35.609Z,74.67
2019-06-01T18:28:35.607Z,74.81
2019-06-01T18:29:38.825Z,75.08
2019-06-01T18:30:35.639Z,74.02
2019-06-01T18:31:35.599Z,74.63
2019-06-01T18:32:35.759Z,74.94
2019-06-01T18:33:35.632Z,74.42
2019-06-01T18:34:35.588Z,74.42
2019-06-01T18:35:35.627Z,75.51
2019-06-01T18:36:35.602Z,75.02
2019-06-01T18:37:35.595Z,75.77
2019-06-01T18:38:35.671Z,76.61
2019-06-01T18:39:35.678Z,76.55
2019-06-01T18:40:35.618Z,75.95
2019-06-01T18:41:35.615Z,77.08
2019-06-01T18:42:35.636Z,76.29
2019-06-01T18:43:35.626Z,75.83
2019-06-01T18:44:35.675Z,76.69
2019-06-01T18:45:35.680Z,77.35
2019-06-01T18:46:35.645Z,77.50
2019-06-01T18:47:35.652Z,77.32
2019-06-01T18:48:35.618Z,76.77
2019-06-01T18:49:35.609Z,75.39
2019-06-01T18:50:35.687Z,77.79
2019-06-01T18:51:35.622Z,76.08
2019-06-01T18:52:35.649Z,75.84
2019-06-01T18:53:35.620Z,75.86
2019-06-01T18:54:35.655Z,75.46
2019-06-01T18:55:36.114Z,76.14
2019-06-01T18:56:35.634Z,76.52
2019-06-01T18:57:35.631Z,74.80
2019-06-01T18:58:35.629Z,75.75
2019-06-01T18:59:35.646Z,75.69
2019-06-01T19:00:39.299Z,76.49
2019-06-01T19:01:35.650Z,77.14
2019-06-01T19:02:35.662Z,77.85
2019-06-01T19:03:35.628Z,77.16
2019-06-01T19:04:35.647Z,77.31
2019-06-01T19:05:35.667Z,76.82
2019-06-01T19:06:35.660Z,76.94
2019-06-01T19:07:35.683Z,78.07
2019-06-01T19:08:35.694Z,78.95